createdAt,value
2022-08-05T00:02:50.438Z,15.90
2022-08-05T00:06:35.989Z,15.90
2022-08-05T00:10:18.334Z,15.80
2022-08-05T00:14:00.325Z,15.70
2022-08-05T00:17:44.224Z,15.70
2022-08-05T00:21:30.474Z,15.70
2022-08-05T00:25:12.905Z,15.70
2022-08-05T00:28:54.892Z,15.60
2022-08-05T00:32:36.867Z,15.50
2022-08-05T00:37:09.902Z,15.50
2022-08-05T00:40:26.991Z,15.50
2022-08-05T00:44:09.597Z,15.40
2022-08-05T00:47:56.639Z,15.40
2022-08-05T00:51:50.503Z,15.40
2022-08-05T00:55:33.936Z,15.40
2022-08-05T00:59:24.594Z,15.40
2022-08-05T01:03:07.926Z,15.30
2022-08-05T01:06:51.720Z,15.30
2022-08-05T01:11:03.114Z,15.30
2022-08-05T01:14:44.993Z,15.20
2022-08-05T01:18:32.908Z,15.20
2022-08-05T01:22:48.898Z,15.20
2022-08-05T01:26:52.838Z,15.20
2022-08-05T01:30:39.748Z,15.10
2022-08-05T01:34:38.006Z,15.10
2022-08-05T01:38:27.292Z,15.00
2022-08-05T01:42:15.295Z,15.00
2022-08-05T01:46:07.310Z,15.00
2022-08-05T01:50:03.069Z,14.90
2022-08-05T01:53:56.947Z,14.90
2022-08-05T01:58:09.704Z,14.90
2022-08-05T02:01:49.745Z,14.90
2022-08-05T02:05:36.877Z,14.80
2022-08-05T02:09:20.614Z,14.70
2022-08-05T02:13:15.917Z,14.60
2022-08-05T02:17:16.765Z,14.50
2022-08-05T02:21:26.267Z,14.40
2022-08-05T02:25:12.497Z,14.20
2022-08-05T02:28:58.375Z,14.20
2022-08-05T02:32:42.142Z,14.10
2022-08-05T02:36:27.622Z,14.00
2022-08-05T02:40:14.798Z,13.90
2022-08-05T02:44:02.508Z,13.90
2022-08-05T02:48:06.943Z,13.80
2022-08-05T02:52:02.906Z,13.80
2022-08-05T02:55:54.729Z,13.70
2022-08-05T02:59:50.200Z,13.70
2022-08-05T03:04:02.246Z,13.70
2022-08-05T03:08:00.938Z,13.70
2022-08-05T03:11:54.739Z,13.70
2022-08-05T03:15:46.113Z,13.70
2022-08-05T03:19:34.399Z,13.70
2022-08-05T03:23:18.416Z,13.60
2022-08-05T03:27:06.666Z,13.60
2022-08-05T03:30:49.591Z,13.60
2022-08-05T03:34:32.990Z,13.50
2022-08-05T03:38:15.389Z,13.50
2022-08-05T03:41:57.436Z,13.40
2022-08-05T03:45:55.212Z,13.40
2022-08-05T03:49:52.070Z,13.30
2022-08-05T03:55:53.362Z,13.20
2022-08-05T03:57:53.745Z,13.20
2022-08-05T04:01:40.207Z,13.00
2022-08-05T04:05:23.209Z,12.90
2022-08-05T04:09:08.774Z,12.80
2022-08-05T04:12:51.770Z,12.70
2022-08-05T04:16:36.753Z,12.60
2022-08-05T04:20:21.374Z,12.50
2022-08-05T04:24:09.070Z,12.40
2022-08-05T04:28:11.065Z,12.40
2022-08-05T04:31:53.418Z,12.20
2022-08-05T04:36:11.094Z,12.20
2022-08-05T04:39:40.971Z,12.10
2022-08-05T04:43:22.947Z,12.00
2022-08-05T04:47:10.350Z,11.90
2022-08-05T04:51:01.955Z,11.80
2022-08-05T04:54:45.137Z,11.80
2022-08-05T04:58:27.044Z,11.70
2022-08-05T05:02:36.621Z,11.70
2022-08-05T05:06:36.044Z,11.60
2022-08-05T05:10:14.441Z,11.60
2022-08-05T05:13:56.359Z,11.50
2022-08-05T05:17:57.128Z,11.50
2022-08-05T05:21:39.610Z,11.50
2022-08-05T05:25:21.617Z,11.50
2022-08-05T05:29:22.617Z,11.60
2022-08-05T05:33:16.469Z,11.70
2022-08-05T05:36:59.418Z,11.80
2022-08-05T05:40:47.976Z,11.80
2022-08-05T05:44:36.738Z,12.00
2022-08-05T05:48:19.579Z,12.10
2022-08-05T05:52:12.985Z,12.20
2022-08-05T05:56:09.545Z,12.30
2022-08-05T05:59:51.509Z,12.50
2022-08-05T06:03:54.103Z,12.70
2022-08-05T06:07:41.766Z,12.80
2022-08-05T06:11:24.541Z,13.00
2022-08-05T06:15:08.018Z,13.20
2022-08-05T06:18:50.119Z,13.40
2022-08-05T06:22:35.892Z,13.60
2022-08-05T06:26:20.908Z,13.80
2022-08-05T06:30:20.177Z,14.10
2022-08-05T06:34:06.956Z,14.30
2022-08-05T06:37:58.127Z,14.60
2022-08-05T06:41:41.318Z,14.80
2022-08-05T06:46:03.041Z,15.00
2022-08-05T06:50:01.932Z,15.20
2022-08-05T06:53:29.297Z,15.60
2022-08-05T06:58:03.468Z,15.90
2022-08-05T07:01:16.891Z,16.20
2022-08-05T07:05:03.121Z,16.40
2022-08-05T07:08:56.364Z,16.70
2022-08-05T07:12:59.561Z,17.00
2022-08-05T07:18:00.227Z,17.40
2022-08-05T07:20:52.357Z,17.90
2022-08-05T07:24:43.986Z,18.50
2022-08-05T07:28:34.838Z,19.00
2022-08-05T07:32:16.770Z,19.50
2022-08-05T07:36:20.822Z,19.70
2022-08-05T07:40:32.519Z,19.80
2022-08-05T07:44:14.523Z,19.80
2022-08-05T07:48:01.707Z,20.00
2022-08-05T07:51:53.290Z,20.10
2022-08-05T07:56:04.780Z,20.20
2022-08-05T07:59:40.993Z,20.30
2022-08-05T08:03:23.277Z,20.50
2022-08-05T08:07:28.162Z,20.60
2022-08-05T08:11:10.696Z,20.70
2022-08-05T08:15:02.153Z,20.70
2022-08-05T08:18:49.952Z,20.80
2022-08-05T08:22:33.436Z,20.90
2022-08-05T08:26:15.451Z,21.00
2022-08-05T08:30:06.037Z,21.10
2022-08-05T08:33:59.661Z,21.20
2022-08-05T08:37:45.157Z,21.30
2022-08-05T08:41:51.255Z,21.30
2022-08-05T08:45:32.911Z,21.40
2022-08-05T08:50:07.600Z,21.60
2022-08-05T08:53:19.193Z,21.80
2022-08-05T08:57:02.074Z,22.10
2022-08-05T09:00:44.546Z,22.80
2022-08-05T09:04:30.731Z,23.40
2022-08-05T09:08:12.761Z,23.60
2022-08-05T09:11:59.337Z,23.60
2022-08-05T09:15:48.100Z,23.60
2022-08-05T09:19:36.815Z,23.60
2022-08-05T09:23:37.433Z,23.60
2022-08-05T09:28:04.504Z,23.90
2022-08-05T09:32:41.545Z,24.30
2022-08-05T09:36:11.865Z,24.70
2022-08-05T09:39:58.581Z,25.20
2022-08-05T09:43:42.231Z,25.90
2022-08-05T09:47:29.675Z,26.60
2022-08-05T09:51:34.429Z,26.90
2022-08-05T09:55:56.545Z,26.60
2022-08-05T09:59:27.541Z,26.50
2022-08-05T10:03:11.205Z,27.00
2022-08-05T10:06:59.632Z,27.40
2022-08-05T10:10:44.804Z,27.20
2022-08-05T10:14:32.211Z,27.10
2022-08-05T10:18:16.890Z,27.70
2022-08-05T10:21:59.360Z,27.70
2022-08-05T10:25:41.612Z,27.90
2022-08-05T10:30:41.387Z,28.20
2022-08-05T10:33:34.266Z,28.70
2022-08-05T10:37:18.763Z,29.30
2022-08-05T10:41:23.261Z,29.10
2022-08-05T10:45:21.568Z,29.60
2022-08-05T10:49:10.460Z,30.20
2022-08-05T10:52:59.949Z,30.80
2022-08-05T10:56:53.069Z,30.60
2022-08-05T11:00:35.313Z,29.80
2022-08-05T11:04:26.341Z,29.90
2022-08-05T11:08:36.732Z,30.20
2022-08-05T11:12:42.316Z,30.90
2022-08-05T11:16:47.422Z,31.40
2022-08-05T11:20:39.079Z,31.10
2022-08-05T11:24:30.626Z,30.60
2022-08-05T11:28:17.287Z,30.00
2022-08-05T11:32:27.455Z,30.20
2022-08-05T11:36:10.666Z,29.80
2022-08-05T11:40:00.329Z,29.40
2022-08-05T11:44:07.529Z,30.00
2022-08-05T11:47:54.591Z,30.70
2022-08-05T11:51:43.731Z,31.30
2022-08-05T11:55:32.175Z,31.10
2022-08-05T11:59:21.187Z,30.50
2022-08-05T12:03:29.160Z,30.70
2022-08-05T12:07:16.125Z,30.20
2022-08-05T12:11:05.871Z,29.80
2022-08-05T12:14:48.417Z,30.10
2022-08-05T12:18:38.893Z,30.80
2022-08-05T12:22:27.854Z,31.30
2022-08-05T12:26:09.795Z,31.90
2022-08-05T12:30:09.229Z,32.20
2022-08-05T12:33:57.409Z,31.80
2022-08-05T12:37:40.391Z,31.10
2022-08-05T12:41:22.317Z,30.20
2022-08-05T12:45:16.313Z,29.20
2022-08-05T12:49:13.523Z,28.40
2022-08-05T12:52:59.650Z,28.60
2022-08-05T12:56:43.255Z,29.20
2022-08-05T13:02:00.355Z,29.60
2022-08-05T13:04:41.626Z,30.00
2022-08-05T13:08:23.990Z,30.70
2022-08-05T13:12:16.083Z,30.80
2022-08-05T13:15:59.055Z,30.80
2022-08-05T13:19:51.839Z,31.20
2022-08-05T13:23:35.001Z,31.40
2022-08-05T13:27:53.556Z,31.50
2022-08-05T13:32:04.907Z,31.70
2022-08-05T13:35:47.428Z,31.10
2022-08-05T13:40:14.997Z,30.40
2022-08-05T13:43:45.825Z,30.20
2022-08-05T13:48:08.753Z,30.80
2022-08-05T13:51:46.438Z,30.90
2022-08-05T13:55:40.993Z,30.30
2022-08-05T13:59:27.427Z,29.80
2022-08-05T14:03:12.836Z,30.30
2022-08-05T14:07:11.897Z,30.70
2022-08-05T14:11:08.078Z,30.60
2022-08-05T14:14:58.731Z,30.80
2022-08-05T14:18:40.693Z,31.30
2022-08-05T14:22:23.387Z,31.00
2022-08-05T14:26:38.476Z,30.10
2022-08-05T14:30:20.116Z,29.60
2022-08-05T14:34:03.586Z,29.20
2022-08-05T14:37:49.010Z,29.00
2022-08-05T14:41:33.297Z,28.90
2022-08-05T14:45:15.346Z,28.90
2022-08-05T14:49:06.692Z,29.30
2022-08-05T14:52:53.543Z,29.70
2022-08-05T14:56:44.349Z,29.40
2022-08-05T15:00:29.585Z,28.90
2022-08-05T15:04:11.993Z,28.70
2022-08-05T15:08:11.367Z,28.80
2022-08-05T15:11:57.131Z,29.00
2022-08-05T15:15:55.151Z,29.20
2022-08-05T15:19:38.992Z,29.40
2022-08-05T15:23:21.011Z,29.40
2022-08-05T15:27:03.460Z,29.40
2022-08-05T15:30:46.552Z,29.30
2022-08-05T15:34:33.141Z,29.30
2022-08-05T15:38:34.087Z,29.00
2022-08-05T15:42:49.995Z,28.90
2022-08-05T15:46:20.653Z,28.80
2022-08-05T15:50:07.627Z,28.50
2022-08-05T15:53:51.947Z,28.50
2022-08-05T15:57:34.656Z,28.40
2022-08-05T16:01:18.958Z,28.30
2022-08-05T16:05:02.297Z,28.20
2022-08-05T16:08:47.478Z,27.80
2022-08-05T16:12:29.537Z,27.40
2022-08-05T16:16:15.170Z,27.00
2022-08-05T16:20:11.665Z,26.60
2022-08-05T16:23:55.369Z,26.10
2022-08-05T16:28:00.134Z,25.70
2022-08-05T16:31:57.429Z,25.50
2022-08-05T16:35:42.169Z,25.20
2022-08-05T16:40:05.040Z,24.90
2022-08-05T16:43:32.107Z,24.50
2022-08-05T16:47:28.727Z,24.20
2022-08-05T16:51:16.276Z,23.80
2022-08-05T16:54:58.245Z,23.60
2022-08-05T16:58:41.054Z,23.40
2022-08-05T17:02:23.453Z,23.20
2022-08-05T17:06:05.757Z,23.10
2022-08-05T17:09:58.372Z,23.00
2022-08-05T17:13:42.173Z,22.90
2022-08-05T17:17:24.340Z,22.80
2022-08-05T17:21:24.319Z,22.80
2022-08-05T17:25:09.705Z,22.80
2022-08-05T17:29:10.097Z,22.70
2022-08-05T17:32:52.839Z,22.60
2022-08-05T17:36:40.153Z,22.60
2022-08-05T17:40:23.078Z,22.40
2022-08-05T17:44:05.181Z,22.40
2022-08-05T17:47:51.368Z,22.40
2022-08-05T17:51:40.019Z,22.20
2022-08-05T17:55:27.321Z,22.10
2022-08-05T17:59:20.913Z,22.00
2022-08-05T18:03:04.659Z,21.80
2022-08-05T18:06:50.135Z,21.70
2022-08-05T18:10:33.702Z,21.60
2022-08-05T18:14:20.543Z,21.50
2022-08-05T18:18:07.839Z,21.40
2022-08-05T18:22:09.087Z,21.30
2022-08-05T18:25:57.841Z,21.20
2022-08-05T18:29:41.795Z,21.10
2022-08-05T18:33:24.154Z,20.90
2022-08-05T18:37:12.662Z,20.80
2022-08-05T18:41:56.551Z,20.70
2022-08-05T18:45:02.274Z,20.60
2022-08-05T18:48:44.280Z,20.50
2022-08-05T18:52:50.887Z,20.40
2022-08-05T18:56:33.866Z,20.20
2022-08-05T19:00:20.638Z,20.10
2022-08-05T19:04:03.053Z,20.00
2022-08-05T19:07:50.728Z,19.80
2022-08-05T19:11:37.226Z,19.70
2022-08-05T19:16:00.119Z,19.60
2022-08-05T19:19:37.533Z,19.40
2022-08-05T19:24:05.951Z,19.30
2022-08-05T19:27:33.804Z,19.20
2022-08-05T19:31:19.232Z,19.10
2022-08-05T19:35:05.962Z,19.00
2022-08-05T19:38:48.889Z,18.90
2022-08-05T19:42:35.703Z,18.80
2022-08-05T19:46:30.593Z,18.70
2022-08-05T19:50:12.932Z,18.50
2022-08-05T19:54:04.999Z,18.40
2022-08-05T19:58:19.569Z,18.30
2022-08-05T20:01:50.050Z,18.20
2022-08-05T20:05:43.108Z,18.00
2022-08-05T20:09:25.707Z,17.90
2022-08-05T20:13:07.657Z,17.80
2022-08-05T20:16:51.646Z,17.70
2022-08-05T20:20:33.815Z,17.60
2022-08-05T20:24:16.171Z,17.50
2022-08-05T20:27:58.212Z,17.30
2022-08-05T20:31:50.366Z,17.30
2022-08-05T20:35:40.644Z,17.20
2022-08-05T20:39:35.445Z,17.10
2022-08-05T20:43:33.403Z,17.00
2022-08-05T20:47:20.893Z,17.00
2022-08-05T20:51:15.691Z,16.90
2022-08-05T20:55:15.728Z,16.80
2022-08-05T20:59:00.104Z,16.70
2022-08-05T21:03:01.164Z,16.60
2022-08-05T21:06:45.283Z,16.60
2022-08-05T21:10:30.778Z,16.50
2022-08-05T21:14:12.759Z,16.40
2022-08-05T21:17:56.533Z,16.30
2022-08-05T21:21:44.439Z,16.30
2022-08-05T21:25:34.114Z,16.20
2022-08-05T21:29:16.906Z,16.20
2022-08-05T21:32:59.819Z,16.10
2022-08-05T21:36:46.601Z,16.00
2022-08-05T21:40:31.269Z,16.00
2022-08-05T21:44:16.258Z,16.00
2022-08-05T21:48:08.898Z,15.90
2022-08-05T21:52:22.948Z,15.90
2022-08-05T21:56:06.440Z,15.90
2022-08-05T22:00:05.378Z,15.90
2022-08-05T22:03:53.130Z,15.90
2022-08-05T22:07:39.324Z,15.80
2022-08-05T22:11:36.487Z,15.80
2022-08-05T22:16:00.887Z,15.70
2022-08-05T22:20:02.938Z,15.60
2022-08-05T22:24:02.764Z,15.60
2022-08-05T22:28:08.360Z,15.60
2022-08-05T22:31:45.947Z,15.50
2022-08-05T22:35:49.174Z,15.50
2022-08-05T22:39:33.977Z,15.40
2022-08-05T22:43:16.256Z,15.30
2022-08-05T22:47:29.841Z,15.30
2022-08-05T22:51:15.719Z,15.20
2022-08-05T22:55:18.610Z,15.20
2022-08-05T22:59:42.563Z,15.10
2022-08-05T23:03:04.902Z,15.00
2022-08-05T23:06:47.621Z,15.00
2022-08-05T23:10:30.020Z,14.90
2022-08-05T23:14:13.182Z,14.80
2022-08-05T23:18:01.727Z,14.80
2022-08-05T23:21:48.209Z,14.80
2022-08-05T23:25:51.955Z,14.70
2022-08-05T23:29:34.588Z,14.60
2022-08-05T23:33:25.817Z,14.50
2022-08-05T23:37:18.766Z,14.50
2022-08-05T23:41:02.415Z,14.50
2022-08-05T23:44:44.702Z,14.40
2022-08-05T23:48:36.127Z,14.30
2022-08-05T23:52:27.788Z,14.30
2022-08-05T23:56:10.322Z,14.20
